Main page
METAR-TAF:

METAR-TAF

Airports :

Mécheria Airport

Mécheria, Algeria

latitude: 34-56N, longitude: 000-26W, elevation: 1149 m

Current weather observation

The report was made 36 minutes ago, at 21:00 UTC
Wind 16 kt from the North
Temperature 17°C
Humidity 48%
Pressure 1020 hPa
Visibility: 7000 m
Scattered clouds at a height of 3000 ft

METAR: DAAY 112100Z 01016KT 7000 SCT030 17/06 Q1020

Time: 22:36 (21:36 UTC)

Forecast

The report was made 1 hour and 36 minutes ago, at 20:00 UTC
Forecast valid from 11 at 21 UTC to 12 at 06 UTC
Wind 12 kt from the North/Northeast
Visibility: 6000 m
Scattered clouds at a height of 3000 ft
Temporary
from 11 at 21 UTC to 11 at 24 UTC
Wind 20 kt from the North

TAF: DAAY 112000Z 1121/1206 02012KT 6000 SCT030 TEMPO 1121/1124 36020KT

Weather observations and forecasts of more than 4000 airports (METAR and TAF reports).

The available stations are represented by yellow and red dots on the map.

Hover mouse over dot to see the name of the station.

Then click to see weather observations and forecasts.

To change the map : click on the green buttons with a black cross to zoom in, on the green button with a dash to zoom out, or on the green arrows for adjacent maps.


METAR-TAF: